createdAt,value
2017-10-01T00:00:31.604Z,1012.56
2017-10-01T00:01:12.201Z,1012.52
2017-10-01T00:01:52.801Z,1012.5
2017-10-01T00:02:33.387Z,1012.51
2017-10-01T00:03:13.952Z,1012.48
2017-10-01T00:03:54.591Z,1012.45
2017-10-01T00:04:35.158Z,1012.49
2017-10-01T00:05:15.726Z,1012.45
2017-10-01T00:05:56.299Z,1012.41
2017-10-01T00:06:36.873Z,1012.48
2017-10-01T00:07:17.461Z,1012.5
2017-10-01T00:07:58.053Z,1012.41
2017-10-01T00:08:38.626Z,1012.52
2017-10-01T00:09:19.200Z,1012.48
2017-10-01T00:09:59.816Z,1012.48
2017-10-01T00:10:40.406Z,1012.47
2017-10-01T00:11:21.001Z,1012.46
2017-10-01T00:12:01.573Z,1012.52
2017-10-01T00:12:42.177Z,1012.51
2017-10-01T00:13:22.767Z,1012.47
2017-10-01T00:14:03.373Z,1012.5
2017-10-01T00:14:43.984Z,1012.45
2017-10-01T00:15:24.649Z,1012.51
2017-10-01T00:16:05.253Z,1012.47
2017-10-01T00:16:45.844Z,1012.5
2017-10-01T00:17:26.431Z,1012.48
2017-10-01T00:18:07.054Z,1012.48
2017-10-01T00:18:47.666Z,1012.47
2017-10-01T00:19:28.252Z,1012.53
2017-10-01T00:20:08.840Z,1012.46
2017-10-01T00:20:49.454Z,1012.49
2017-10-01T00:21:30.041Z,1012.48
2017-10-01T00:22:10.604Z,1012.52
2017-10-01T00:22:51.181Z,1012.49
2017-10-01T00:23:31.761Z,1012.52
2017-10-01T00:24:12.346Z,1012.5
2017-10-01T00:24:52.910Z,1012.54
2017-10-01T00:25:33.473Z,1012.48
2017-10-01T00:26:14.039Z,1012.53
2017-10-01T00:26:54.656Z,1012.53
2017-10-01T00:27:35.228Z,1012.53
2017-10-01T00:28:15.822Z,1012.55
2017-10-01T00:28:56.392Z,1012.56
2017-10-01T00:29:36.992Z,1012.51
2017-10-01T00:30:17.704Z,1012.51
2017-10-01T00:30:58.335Z,1012.51
2017-10-01T00:31:38.882Z,1012.51
2017-10-01T00:32:19.496Z,1012.53
2017-10-01T00:33:00.088Z,1012.5
2017-10-01T00:33:40.650Z,1012.5
2017-10-01T00:34:21.263Z,1012.49
2017-10-01T00:35:01.855Z,1012.51
2017-10-01T00:35:42.436Z,1012.5
2017-10-01T00:36:23.002Z,1012.52
2017-10-01T00:37:03.605Z,1012.53
2017-10-01T00:37:44.203Z,1012.54
2017-10-01T00:38:24.781Z,1012.52
2017-10-01T00:39:05.360Z,1012.53
2017-10-01T00:39:45.961Z,1012.49
2017-10-01T00:40:26.698Z,1012.52
2017-10-01T00:41:07.202Z,1012.48
2017-10-01T00:41:47.804Z,1012.48
2017-10-01T00:42:28.378Z,1012.48
2017-10-01T00:43:08.969Z,1012.46
2017-10-01T00:43:49.568Z,1012.46
2017-10-01T00:44:30.135Z,1012.4
2017-10-01T00:45:10.732Z,1012.44
2017-10-01T00:45:51.354Z,1012.46
2017-10-01T00:46:31.922Z,1012.37
2017-10-01T00:47:12.552Z,1012.37
2017-10-01T00:47:53.134Z,1012.43
2017-10-01T00:48:33.716Z,1012.39
2017-10-01T00:49:14.300Z,1012.42
2017-10-01T00:49:54.874Z,1012.4
2017-10-01T00:50:35.455Z,1012.41
2017-10-01T00:51:16.082Z,1012.42
2017-10-01T00:51:56.684Z,1012.39
2017-10-01T00:52:37.256Z,1012.43
2017-10-01T00:53:17.842Z,1012.43
2017-10-01T00:53:58.447Z,1012.4
2017-10-01T00:54:39.074Z,1012.46
2017-10-01T00:55:19.595Z,1012.45
2017-10-01T00:56:00.205Z,1012.45
2017-10-01T00:56:40.858Z,1012.44
2017-10-01T00:57:21.450Z,1012.45
2017-10-01T00:58:02.076Z,1012.5
2017-10-01T00:58:42.673Z,1012.47
2017-10-01T00:59:23.271Z,1012.44
2017-10-01T01:00:03.856Z,1012.45
2017-10-01T01:00:44.545Z,1012.47
2017-10-01T01:01:25.133Z,1012.47
2017-10-01T01:02:05.748Z,1012.52
2017-10-01T01:02:46.338Z,1012.49
2017-10-01T01:03:26.939Z,1012.45
2017-10-01T01:04:07.554Z,1012.45
2017-10-01T01:04:48.125Z,1012.47
2017-10-01T01:05:28.726Z,1012.43
2017-10-01T01:06:09.344Z,1012.53
2017-10-01T01:06:49.926Z,1012.52
2017-10-01T01:07:30.473Z,1012.52
2017-10-01T01:08:11.049Z,1012.57
2017-10-01T01:08:51.607Z,1012.58
2017-10-01T01:09:32.189Z,1012.56
2017-10-01T01:10:12.787Z,1012.56
2017-10-01T01:10:53.394Z,1012.59
2017-10-01T01:11:34.049Z,1012.55
2017-10-01T01:12:14.612Z,1012.6
2017-10-01T01:12:55.219Z,1012.59
2017-10-01T01:13:35.802Z,1012.58
2017-10-01T01:14:16.390Z,1012.6
2017-10-01T01:14:57.031Z,1012.59
2017-10-01T01:15:37.604Z,1012.6
2017-10-01T01:16:18.179Z,1012.62
2017-10-01T01:16:58.761Z,1012.59
2017-10-01T01:17:39.350Z,1012.61
2017-10-01T01:18:19.973Z,1012.6
2017-10-01T01:19:00.570Z,1012.57
2017-10-01T01:19:41.182Z,1012.6
2017-10-01T01:20:21.757Z,1012.56
2017-10-01T01:21:02.322Z,1012.6
2017-10-01T01:21:43.023Z,1012.59
2017-10-01T01:22:23.590Z,1012.57
2017-10-01T01:23:04.175Z,1012.58
2017-10-01T01:23:44.838Z,1012.61
2017-10-01T01:24:25.410Z,1012.55
2017-10-01T01:25:05.982Z,1012.55
2017-10-01T01:25:46.612Z,1012.57
2017-10-01T01:26:27.302Z,1012.52
2017-10-01T01:27:07.887Z,1012.57
2017-10-01T01:27:48.495Z,1012.55
2017-10-01T01:28:29.098Z,1012.6
2017-10-01T01:29:09.723Z,1012.56
2017-10-01T01:29:50.579Z,1012.62
2017-10-01T01:30:31.016Z,1012.61
2017-10-01T01:31:11.698Z,1012.6
2017-10-01T01:31:52.368Z,1012.61
2017-10-01T01:32:32.973Z,1012.64
2017-10-01T01:33:13.746Z,1012.64
2017-10-01T01:33:54.480Z,1012.61
2017-10-01T01:34:35.083Z,1012.67
2017-10-01T01:35:15.814Z,1012.67
2017-10-01T01:35:56.397Z,1012.64
2017-10-01T01:36:37.037Z,1012.65
2017-10-01T01:37:17.662Z,1012.66
2017-10-01T01:37:58.263Z,1012.64
2017-10-01T01:38:38.854Z,1012.66
2017-10-01T01:39:19.519Z,1012.72
2017-10-01T01:40:00.236Z,1012.75
2017-10-01T01:40:40.812Z,1012.7
2017-10-01T01:41:21.409Z,1012.7
2017-10-01T01:42:02.020Z,1012.71
2017-10-01T01:42:42.681Z,1012.74
2017-10-01T01:43:23.276Z,1012.69
2017-10-01T01:44:03.890Z,1012.72
2017-10-01T01:44:44.460Z,1012.75
2017-10-01T01:45:25.068Z,1012.78
2017-10-01T01:46:05.647Z,1012.77
2017-10-01T01:46:46.237Z,1012.73
2017-10-01T01:47:26.838Z,1012.74
2017-10-01T01:48:07.444Z,1012.77
2017-10-01T01:48:48.200Z,1012.76
2017-10-01T01:49:28.794Z,1012.76
2017-10-01T01:50:09.403Z,1012.78
2017-10-01T01:50:50.026Z,1012.8
2017-10-01T01:51:30.623Z,1012.79
2017-10-01T01:52:11.189Z,1012.81
2017-10-01T01:52:51.786Z,1012.78
2017-10-01T01:53:32.416Z,1012.8
2017-10-01T01:54:12.990Z,1012.82
2017-10-01T01:54:53.609Z,1012.82
2017-10-01T01:55:34.163Z,1012.86
2017-10-01T01:56:14.772Z,1012.87
2017-10-01T01:56:55.372Z,1012.86
2017-10-01T01:57:35.950Z,1012.85
2017-10-01T01:58:16.528Z,1012.85
2017-10-01T01:58:57.118Z,1012.86
2017-10-01T01:59:37.711Z,1012.85
2017-10-01T02:00:18.291Z,1012.84
2017-10-01T02:00:58.866Z,1012.87
2017-10-01T02:01:39.437Z,1012.83
2017-10-01T02:02:20.011Z,1012.84
2017-10-01T02:03:00.605Z,1012.85
2017-10-01T02:03:41.192Z,1012.85
2017-10-01T02:04:21.768Z,1012.85
2017-10-01T02:05:02.361Z,1012.86
2017-10-01T02:05:42.961Z,1012.86
2017-10-01T02:06:23.530Z,1012.88
2017-10-01T02:07:04.116Z,1012.91
2017-10-01T02:07:44.702Z,1012.86
2017-10-01T02:08:25.276Z,1012.9
2017-10-01T02:09:05.854Z,1012.94
2017-10-01T02:09:46.431Z,1012.91
2017-10-01T02:10:27.008Z,1012.9
2017-10-01T02:11:07.627Z,1012.94
2017-10-01T02:11:48.207Z,1012.95
2017-10-01T02:12:28.814Z,1012.91
2017-10-01T02:13:09.417Z,1012.92
2017-10-01T02:13:50.030Z,1012.94
2017-10-01T02:14:30.620Z,1012.92
2017-10-01T02:15:11.209Z,1012.91
2017-10-01T02:15:51.790Z,1012.91
2017-10-01T02:16:32.379Z,1012.92
2017-10-01T02:17:12.962Z,1012.91
2017-10-01T02:17:53.608Z,1012.9
2017-10-01T02:18:34.202Z,1012.91
2017-10-01T02:19:14.795Z,1012.89
2017-10-01T02:19:55.437Z,1012.9
2017-10-01T02:20:36.021Z,1012.94
2017-10-01T02:21:16.624Z,1012.92
2017-10-01T02:21:57.224Z,1012.91
2017-10-01T02:22:37.845Z,1012.93
2017-10-01T02:23:18.468Z,1012.93
2017-10-01T02:23:59.055Z,1012.94
2017-10-01T02:24:39.711Z,1012.94
2017-10-01T02:25:20.331Z,1012.92
2017-10-01T02:26:00.889Z,1012.95
2017-10-01T02:26:41.453Z,1012.92
2017-10-01T02:27:22.038Z,1012.92
2017-10-01T02:28:02.619Z,1012.92
2017-10-01T02:28:43.230Z,1012.98
2017-10-01T02:29:23.809Z,1012.93
2017-10-01T02:30:04.385Z,1012.94
2017-10-01T02:30:45.055Z,1012.96
2017-10-01T02:31:25.598Z,1012.99
2017-10-01T02:32:06.253Z,1013
2017-10-01T02:32:46.843Z,1013
2017-10-01T02:33:27.568Z,1013.02
2017-10-01T02:34:08.156Z,1013.03
2017-10-01T02:34:48.753Z,1013.03
2017-10-01T02:35:29.353Z,1013.03
2017-10-01T02:36:09.926Z,1013.01
2017-10-01T02:36:50.518Z,1013.06
2017-10-01T02:37:31.289Z,1013.04
2017-10-01T02:38:11.824Z,1013.02
2017-10-01T02:38:52.428Z,1013.03
2017-10-01T02:39:33.122Z,1013.07
2017-10-01T02:40:13.819Z,1013.05
2017-10-01T02:40:54.395Z,1013.07
2017-10-01T02:41:34.978Z,1013.13
2017-10-01T02:42:15.556Z,1013.08
2017-10-01T02:42:56.137Z,1013.1
2017-10-01T02:43:36.789Z,1013.09
2017-10-01T02:44:17.393Z,1013.11
2017-10-01T02:44:57.977Z,1013.12
2017-10-01T02:45:38.641Z,1013.08
2017-10-01T02:46:19.368Z,1013.12
2017-10-01T02:46:59.953Z,1013.12
2017-10-01T02:47:40.550Z,1013.11
2017-10-01T02:48:21.152Z,1013.11
2017-10-01T02:49:01.759Z,1013.12
2017-10-01T02:49:42.338Z,1013.12
2017-10-01T02:50:22.919Z,1013.16
2017-10-01T02:51:03.530Z,1013.12
2017-10-01T02:51:44.132Z,1013.12
2017-10-01T02:52:24.743Z,1013.11
2017-10-01T02:53:05.324Z,1013.11
2017-10-01T02:53:45.938Z,1013.16
2017-10-01T02:54:26.527Z,1013.15
2017-10-01T02:55:07.136Z,1013.14
2017-10-01T02:55:47.689Z,1013.16
2017-10-01T02:56:28.345Z,1013.19
2017-10-01T02:57:08.949Z,1013.23
2017-10-01T02:57:49.550Z,1013.21
2017-10-01T02:58:30.139Z,1013.21
2017-10-01T02:59:10.759Z,1013.17
2017-10-01T02:59:51.387Z,1013.19
2017-10-01T03:00:31.963Z,1013.2
2017-10-01T03:01:12.555Z,1013.25
2017-10-01T03:01:53.147Z,1013.27
2017-10-01T03:02:33.781Z,1013.25
2017-10-01T03:03:14.369Z,1013.24
2017-10-01T03:03:54.927Z,1013.27
2017-10-01T03:04:35.526Z,1013.23
2017-10-01T03:05:16.174Z,1013.27
2017-10-01T03:05:56.753Z,1013.25
2017-10-01T03:06:37.329Z,1013.25
2017-10-01T03:07:17.917Z,1013.26
2017-10-01T03:07:58.499Z,1013.23
2017-10-01T03:08:39.077Z,1013.23
2017-10-01T03:09:19.684Z,1013.27
2017-10-01T03:10:00.242Z,1013.26
2017-10-01T03:10:40.846Z,1013.23
2017-10-01T03:11:21.415Z,1013.24
2017-10-01T03:12:02.005Z,1013.25
2017-10-01T03:12:42.599Z,1013.27
2017-10-01T03:13:23.198Z,1013.2
2017-10-01T03:14:03.863Z,1013.2
2017-10-01T03:14:44.416Z,1013.23
2017-10-01T03:15:25.009Z,1013.24
2017-10-01T03:16:05.602Z,1013.21
2017-10-01T03:16:46.209Z,1013.23
2017-10-01T03:17:26.792Z,1013.25
2017-10-01T03:18:07.379Z,1013.28
2017-10-01T03:18:47.968Z,1013.29
2017-10-01T03:19:28.538Z,1013.24
2017-10-01T03:20:09.113Z,1013.25
2017-10-01T03:20:49.695Z,1013.29
2017-10-01T03:21:30.281Z,1013.26
2017-10-01T03:22:10.872Z,1013.29
2017-10-01T03:22:51.479Z,1013.31
2017-10-01T03:23:32.103Z,1013.29
2017-10-01T03:24:12.693Z,1013.34
2017-10-01T03:24:53.249Z,1013.37
2017-10-01T03:25:33.822Z,1013.38
2017-10-01T03:26:14.399Z,1013.39
2017-10-01T03:26:55.004Z,1013.35
2017-10-01T03:27:35.604Z,1013.44
2017-10-01T03:28:16.201Z,1013.41
2017-10-01T03:28:56.784Z,1013.38
2017-10-01T03:29:37.417Z,1013.4
2017-10-01T03:30:17.954Z,1013.41
2017-10-01T03:30:58.518Z,1013.43
2017-10-01T03:31:39.241Z,1013.42
2017-10-01T03:32:19.902Z,1013.41
2017-10-01T03:33:00.508Z,1013.41
2017-10-01T03:33:41.071Z,1013.46
2017-10-01T03:34:21.650Z,1013.44
2017-10-01T03:35:02.240Z,1013.44
2017-10-01T03:35:42.837Z,1013.45
2017-10-01T03:36:23.472Z,1013.45
2017-10-01T03:37:04.082Z,1013.44
2017-10-01T03:37:44.681Z,1013.46
2017-10-01T03:38:25.295Z,1013.44
2017-10-01T03:39:05.884Z,1013.43
2017-10-01T03:39:46.432Z,1013.41
2017-10-01T03:40:27.052Z,1013.44
2017-10-01T03:41:07.645Z,1013.44
2017-10-01T03:41:48.265Z,1013.44
2017-10-01T03:42:28.846Z,1013.44
2017-10-01T03:43:09.450Z,1013.47
2017-10-01T03:43:50.026Z,1013.49
2017-10-01T03:44:30.685Z,1013.48
2017-10-01T03:45:11.380Z,1013.5
2017-10-01T03:45:51.971Z,1013.49
2017-10-01T03:46:32.553Z,1013.46
2017-10-01T03:47:13.245Z,1013.46
2017-10-01T03:47:53.822Z,1013.51
2017-10-01T03:48:34.415Z,1013.49
2017-10-01T03:49:15.011Z,1013.49
2017-10-01T03:49:55.580Z,1013.51
2017-10-01T03:50:36.171Z,1013.48
2017-10-01T03:51:16.767Z,1013.48
2017-10-01T03:51:57.329Z,1013.48
2017-10-01T03:52:37.928Z,1013.46
2017-10-01T03:53:18.509Z,1013.51
2017-10-01T03:53:59.075Z,1013.5
2017-10-01T03:54:39.639Z,1013.51
2017-10-01T03:55:20.272Z,1013.5
2017-10-01T03:56:00.898Z,1013.51
2017-10-01T03:56:41.485Z,1013.48
2017-10-01T03:57:22.061Z,1013.47
2017-10-01T03:58:02.647Z,1013.51
2017-10-01T03:58:43.232Z,1013.48
2017-10-01T03:59:23.786Z,1013.47
2017-10-01T04:00:04.362Z,1013.52
2017-10-01T04:00:44.926Z,1013.51
2017-10-01T04:01:25.523Z,1013.51
2017-10-01T04:02:06.088Z,1013.48
2017-10-01T04:02:46.709Z,1013.53
2017-10-01T04:03:27.378Z,1013.5
2017-10-01T04:04:07.958Z,1013.5
2017-10-01T04:04:48.544Z,1013.52
2017-10-01T04:05:29.139Z,1013.5
2017-10-01T04:06:09.728Z,1013.49
2017-10-01T04:06:50.323Z,1013.49
2017-10-01T04:07:30.900Z,1013.51
2017-10-01T04:08:11.484Z,1013.49
2017-10-01T04:08:52.062Z,1013.49
2017-10-01T04:09:32.653Z,1013.55
2017-10-01T04:10:13.251Z,1013.57
2017-10-01T04:10:53.861Z,1013.5
2017-10-01T04:11:34.443Z,1013.46
2017-10-01T04:12:15.062Z,1013.52
2017-10-01T04:12:55.672Z,1013.51
2017-10-01T04:13:36.290Z,1013.54
2017-10-01T04:14:16.913Z,1013.52
2017-10-01T04:14:57.534Z,1013.52
2017-10-01T04:15:38.150Z,1013.55
2017-10-01T04:16:18.735Z,1013.56
2017-10-01T04:16:59.331Z,1013.61
2017-10-01T04:17:39.954Z,1013.57
2017-10-01T04:18:20.546Z,1013.58
2017-10-01T04:19:01.108Z,1013.58
2017-10-01T04:19:41.707Z,1013.6
2017-10-01T04:20:22.285Z,1013.59
2017-10-01T04:21:02.903Z,1013.65
2017-10-01T04:21:43.562Z,1013.58
2017-10-01T04:22:24.126Z,1013.6
2017-10-01T04:23:04.716Z,1013.66
2017-10-01T04:23:45.268Z,1013.65
2017-10-01T04:24:25.861Z,1013.64
2017-10-01T04:25:06.413Z,1013.64
2017-10-01T04:25:47.014Z,1013.69
2017-10-01T04:26:27.625Z,1013.68
2017-10-01T04:27:08.254Z,1013.72
2017-10-01T04:27:48.855Z,1013.73
2017-10-01T04:28:29.492Z,1013.71
2017-10-01T04:29:10.059Z,1013.71
2017-10-01T04:29:50.668Z,1013.69
2017-10-01T04:30:31.278Z,1013.7
2017-10-01T04:31:11.841Z,1013.73
2017-10-01T04:31:52.439Z,1013.75
2017-10-01T04:32:33.009Z,1013.71
2017-10-01T04:33:13.622Z,1013.7
2017-10-01T04:33:54.212Z,1013.69
2017-10-01T04:34:34.772Z,1013.74
2017-10-01T04:35:15.355Z,1013.74
2017-10-01T04:35:55.934Z,1013.75
2017-10-01T04:36:36.546Z,1013.75
2017-10-01T04:37:17.140Z,1013.72
2017-10-01T04:37:57.714Z,1013.74
2017-10-01T04:38:38.293Z,1013.74
2017-10-01T04:39:18.909Z,1013.75
2017-10-01T04:39:59.475Z,1013.77
2017-10-01T04:40:40.062Z,1013.78
2017-10-01T04:41:20.702Z,1013.76
2017-10-01T04:42:01.271Z,1013.73
2017-10-01T04:42:41.866Z,1013.71
2017-10-01T04:43:22.471Z,1013.77
2017-10-01T04:44:03.041Z,1013.75
2017-10-01T04:44:43.634Z,1013.77
2017-10-01T04:45:24.239Z,1013.71
2017-10-01T04:46:04.823Z,1013.77
2017-10-01T04:46:45.382Z,1013.79
2017-10-01T04:47:25.971Z,1013.79
2017-10-01T04:48:06.548Z,1013.82
2017-10-01T04:48:47.134Z,1013.8
2017-10-01T04:49:27.742Z,1013.82
2017-10-01T04:50:08.331Z,1013.85
2017-10-01T04:50:48.948Z,1013.87
2017-10-01T04:51:29.537Z,1013.86
2017-10-01T04:52:10.195Z,1013.88
2017-10-01T04:52:50.781Z,1013.86
2017-10-01T04:53:31.397Z,1013.87
2017-10-01T04:54:11.957Z,1013.89
2017-10-01T04:54:52.530Z,1013.89
2017-10-01T04:55:33.149Z,1013.9
2017-10-01T04:56:13.729Z,1013.86
2017-10-01T04:56:54.331Z,1013.94
2017-10-01T04:57:34.927Z,1013.94
2017-10-01T04:58:15.491Z,1013.93
2017-10-01T04:58:56.067Z,1013.91
2017-10-01T04:59:36.645Z,1013.96
2017-10-01T05:00:17.205Z,1013.95
2017-10-01T05:00:57.783Z,1013.94
2017-10-01T05:01:38.455Z,1013.97
2017-10-01T05:02:19.028Z,1013.96
2017-10-01T05:02:59.627Z,1013.96
2017-10-01T05:03:40.205Z,1013.97
2017-10-01T05:04:20.810Z,1014
2017-10-01T05:05:01.386Z,1014.04
2017-10-01T05:05:42.033Z,1014
2017-10-01T05:06:22.618Z,1014.02
2017-10-01T05:07:03.205Z,1014.02
2017-10-01T05:07:43.802Z,1014.01
2017-10-01T05:08:24.391Z,1014.03
2017-10-01T05:09:05.027Z,1014.03
2017-10-01T05:09:45.612Z,1014.05
2017-10-01T05:10:26.189Z,1014.06
2017-10-01T05:11:06.819Z,1014.03
2017-10-01T05:11:47.366Z,1014.03
2017-10-01T05:12:28.012Z,1014.01
2017-10-01T05:13:08.620Z,1014.08
2017-10-01T05:13:49.293Z,1014.07
2017-10-01T05:14:29.863Z,1014.06
2017-10-01T05:15:10.431Z,1014.06
2017-10-01T05:15:51.042Z,1014.04
2017-10-01T05:16:31.633Z,1014.06
2017-10-01T05:17:12.235Z,1014.07
2017-10-01T05:17:52.855Z,1014.08
2017-10-01T05:18:33.473Z,1014.09
2017-10-01T05:19:14.084Z,1014.05
2017-10-01T05:19:54.684Z,1014.06
2017-10-01T05:20:35.279Z,1014.14
2017-10-01T05:21:15.873Z,1014.14
2017-10-01T05:21:56.448Z,1014.14
2017-10-01T05:22:37.042Z,1014.09
2017-10-01T05:23:17.632Z,1014.11
2017-10-01T05:23:58.207Z,1014.1
2017-10-01T05:24:38.813Z,1014.08
2017-10-01T05:25:19.457Z,1014.07
2017-10-01T05:26:00.174Z,1014.07
2017-10-01T05:26:40.777Z,1014.06
2017-10-01T05:27:21.344Z,1014.03
2017-10-01T05:28:01.923Z,1014.03
2017-10-01T05:28:42.524Z,1014.03
2017-10-01T05:29:23.129Z,1014.03
2017-10-01T05:30:03.717Z,1014.04
2017-10-01T05:30:44.306Z,1014.05
2017-10-01T05:31:24.925Z,1014.07
2017-10-01T05:32:05.544Z,1014.06
2017-10-01T05:32:46.125Z,1014.06
2017-10-01T05:33:26.772Z,1014.08
2017-10-01T05:34:07.376Z,1014.1
2017-10-01T05:34:47.945Z,1014.07
2017-10-01T05:35:28.667Z,1014.12
2017-10-01T05:36:09.223Z,1014.14
2017-10-01T05:36:49.790Z,1014.11
2017-10-01T05:37:30.935Z,1014.14
2017-10-01T05:38:11.527Z,1014.13
2017-10-01T05:38:52.113Z,1014.14
2017-10-01T05:39:32.685Z,1014.16
2017-10-01T05:40:13.281Z,1014.16
2017-10-01T05:40:53.858Z,1014.2
2017-10-01T05:41:34.440Z,1014.18
2017-10-01T05:42:15.063Z,1014.2
2017-10-01T05:42:55.630Z,1014.23
2017-10-01T05:43:36.201Z,1014.2
2017-10-01T05:44:16.813Z,1014.18
2017-10-01T05:44:57.411Z,1014.23
2017-10-01T05:45:37.987Z,1014.21
2017-10-01T05:46:18.627Z,1014.19
2017-10-01T05:46:59.165Z,1014.19
2017-10-01T05:47:39.768Z,1014.22
2017-10-01T05:48:20.401Z,1014.18
2017-10-01T05:49:00.985Z,1014.21
2017-10-01T05:49:41.577Z,1014.22
2017-10-01T05:50:22.162Z,1014.15
2017-10-01T05:51:02.743Z,1014.17
2017-10-01T05:51:43.331Z,1014.2
2017-10-01T05:52:23.915Z,1014.22
2017-10-01T05:53:04.550Z,1014.19
2017-10-01T05:53:45.253Z,1014.18
2017-10-01T05:54:25.850Z,1014.19
2017-10-01T05:55:06.613Z,1014.21
2017-10-01T05:55:47.082Z,1014.24
2017-10-01T05:56:27.696Z,1014.21
2017-10-01T05:57:08.291Z,1014.24
2017-10-01T05:57:48.866Z,1014.26
2017-10-01T05:58:29.463Z,1014.26
2017-10-01T05:59:10.072Z,1014.25
2017-10-01T05:59:50.700Z,1014.26
2017-10-01T06:00:31.346Z,1014.23
2017-10-01T06:01:11.954Z,1014.26
2017-10-01T06:01:52.673Z,1014.26
2017-10-01T06:02:33.303Z,1014.3
2017-10-01T06:03:13.880Z,1014.3
2017-10-01T06:03:54.485Z,1014.31
2017-10-01T06:04:35.106Z,1014.3
2017-10-01T06:05:15.702Z,1014.3
2017-10-01T06:05:56.335Z,1014.31
2017-10-01T06:06:37.113Z,1014.36
2017-10-01T06:07:17.689Z,1014.33
2017-10-01T06:07:58.265Z,1014.32
2017-10-01T06:08:38.853Z,1014.35
2017-10-01T06:09:19.420Z,1014.34
2017-10-01T06:10:00.249Z,1014.33
2017-10-01T06:10:40.834Z,1014.34
2017-10-01T06:11:21.425Z,1014.4
2017-10-01T06:12:02.030Z,1014.35
2017-10-01T06:12:42.605Z,1014.39
2017-10-01T06:13:23.217Z,1014.37
2017-10-01T06:14:03.916Z,1014.41
2017-10-01T06:14:44.524Z,1014.38
2017-10-01T06:15:25.142Z,1014.41
2017-10-01T06:16:05.747Z,1014.44
2017-10-01T06:16:46.349Z,1014.44
2017-10-01T06:17:26.937Z,1014.44
2017-10-01T06:18:07.704Z,1014.47
2017-10-01T06:18:48.361Z,1014.49
2017-10-01T06:19:28.948Z,1014.53
2017-10-01T06:20:09.564Z,1014.49
2017-10-01T06:20:50.182Z,1014.54
2017-10-01T06:21:30.763Z,1014.52
2017-10-01T06:22:11.355Z,1014.52
2017-10-01T06:22:51.959Z,1014.52
2017-10-01T06:23:32.562Z,1014.55
2017-10-01T06:24:13.164Z,1014.51
2017-10-01T06:24:53.753Z,1014.53
2017-10-01T06:25:34.421Z,1014.56
2017-10-01T06:26:15.036Z,1014.53
2017-10-01T06:26:55.621Z,1014.54
2017-10-01T06:27:36.236Z,1014.51
2017-10-01T06:28:16.835Z,1014.54
2017-10-01T06:28:57.410Z,1014.53
2017-10-01T06:29:37.984Z,1014.54
2017-10-01T06:30:18.588Z,1014.52
2017-10-01T06:30:59.166Z,1014.5
2017-10-01T06:31:39.754Z,1014.53
2017-10-01T06:32:20.330Z,1014.51
2017-10-01T06:33:00.916Z,1014.49
2017-10-01T06:33:41.501Z,1014.51
2017-10-01T06:34:22.099Z,1014.5
2017-10-01T06:35:02.710Z,1014.56
2017-10-01T06:35:43.328Z,1014.53
2017-10-01T06:36:23.919Z,1014.51
2017-10-01T06:37:04.498Z,1014.53
2017-10-01T06:37:45.122Z,1014.53
2017-10-01T06:38:25.703Z,1014.57
2017-10-01T06:39:06.299Z,1014.58
2017-10-01T06:39:46.905Z,1014.6
2017-10-01T06:40:27.488Z,1014.58
2017-10-01T06:41:08.077Z,1014.59
2017-10-01T06:41:48.656Z,1014.57
2017-10-01T06:42:29.238Z,1014.57
2017-10-01T06:43:09.857Z,1014.59
2017-10-01T06:43:50.477Z,1014.54
2017-10-01T06:44:31.056Z,1014.57
2017-10-01T06:45:11.620Z,1014.56
2017-10-01T06:45:52.213Z,1014.59
2017-10-01T06:46:32.826Z,1014.59
2017-10-01T06:47:13.400Z,1014.59
2017-10-01T06:47:53.978Z,1014.59
2017-10-01T06:48:34.559Z,1014.64
2017-10-01T06:49:15.513Z,1014.64
2017-10-01T06:49:56.112Z,1014.62
2017-10-01T06:50:37.057Z,1014.69
2017-10-01T06:51:17.673Z,1014.7
2017-10-01T06:51:58.278Z,1014.69
2017-10-01T06:52:41.753Z,1014.68
2017-10-01T06:53:22.901Z,1014.71
2017-10-01T06:54:06.399Z,1014.76
2017-10-01T06:54:46.971Z,1014.72
2017-10-01T06:55:27.552Z,1014.76
2017-10-01T06:56:08.167Z,1014.76
2017-10-01T06:56:48.786Z,1014.76
2017-10-01T06:57:29.544Z,1014.81
2017-10-01T06:58:10.154Z,1014.79
2017-10-01T06:58:50.779Z,1014.81
2017-10-01T06:59:31.359Z,1014.84
2017-10-01T07:00:12.024Z,1014.81
2017-10-01T07:02:08.654Z,1014.82
2017-10-01T07:02:49.281Z,1014.84
2017-10-01T07:03:29.850Z,1014.85
2017-10-01T07:04:10.443Z,1014.84
2017-10-01T07:04:51.172Z,1014.85
2017-10-01T07:05:32.839Z,1014.83
2017-10-01T07:06:13.396Z,1014.87
2017-10-01T07:06:53.999Z,1014.84
2017-10-01T07:07:34.616Z,1014.82
2017-10-01T07:08:15.407Z,1014.84
2017-10-01T07:08:56.225Z,1014.86
2017-10-01T07:09:37.523Z,1014.87
2017-10-01T07:10:18.478Z,1014.87
2017-10-01T07:10:59.956Z,1014.88
2017-10-01T07:11:40.500Z,1014.88
2017-10-01T07:12:21.150Z,1014.92
2017-10-01T07:13:01.721Z,1014.91
2017-10-01T07:13:42.286Z,1014.94
2017-10-01T07:14:22.941Z,1014.96
2017-10-01T07:15:03.534Z,1014.95
2017-10-01T07:15:44.116Z,1014.95
2017-10-01T07:16:24.704Z,1014.95
2017-10-01T07:17:05.373Z,1014.98
2017-10-01T07:17:46.006Z,1014.98
2017-10-01T07:18:26.636Z,1014.95
2017-10-01T07:19:07.283Z,1014.99
2017-10-01T07:19:47.953Z,1015
2017-10-01T07:20:28.586Z,1015.02
2017-10-01T07:21:09.232Z,1015.02
2017-10-01T07:21:51.846Z,1015.03
2017-10-01T07:22:35.373Z,1015.04
2017-10-01T07:23:17.373Z,1015.03
2017-10-01T07:23:57.965Z,1015.06
2017-10-01T07:24:38.570Z,1015.07
2017-10-01T07:25:19.222Z,1015.08
2017-10-01T07:25:59.841Z,1015.13
2017-10-01T07:26:40.446Z,1015.1
2017-10-01T07:27:21.026Z,1015.1
2017-10-01T07:28:03.676Z,1015.11
2017-10-01T07:28:48.170Z,1015.12
2017-10-01T07:29:28.783Z,1015.14
2017-10-01T07:30:09.392Z,1015.21
2017-10-01T07:30:52.423Z,1015.19
2017-10-01T07:31:35.223Z,1015.18
2017-10-01T07:32:15.877Z,1015.22
2017-10-01T07:32:56.475Z,1015.21
2017-10-01T07:33:37.060Z,1015.24
2017-10-01T07:34:19.052Z,1015.23
2017-10-01T07:34:59.664Z,1015.25
2017-10-01T07:35:40.917Z,1015.27
2017-10-01T07:36:25.538Z,1015.24
2017-10-01T07:37:08.989Z,1015.23
2017-10-01T07:37:53.426Z,1015.25
2017-10-01T07:38:41.494Z,1015.26
2017-10-01T07:39:31.689Z,1015.28
2017-10-01T07:40:18.267Z,1015.27
2017-10-01T07:41:04.609Z,1015.27
2017-10-01T07:41:46.072Z,1015.3
2017-10-01T07:42:31.582Z,1015.37
2017-10-01T07:43:13.931Z,1015.31
2017-10-01T07:43:56.783Z,1015.29
2017-10-01T07:44:41.593Z,1015.3
2017-10-01T07:45:27.034Z,1015.35
2017-10-01T07:46:11.654Z,1015.32
2017-10-01T07:46:53.994Z,1015.33
2017-10-01T07:47:38.892Z,1015.37
2017-10-01T07:48:24.617Z,1015.39
2017-10-01T07:49:11.413Z,1015.32
2017-10-01T07:49:57.494Z,1015.38
2017-10-01T07:50:42.581Z,1015.36
2017-10-01T07:51:26.359Z,1015.4
2017-10-01T07:52:10.166Z,1015.36
2017-10-01T07:52:52.291Z,1015.36
2017-10-01T07:53:36.499Z,1015.37
2017-10-01T07:54:19.613Z,1015.36
2017-10-01T07:55:03.566Z,1015.39
2017-10-01T07:55:49.949Z,1015.4
2017-10-01T07:56:31.893Z,1015.37
2017-10-01T07:57:14.480Z,1015.4
2017-10-01T07:57:58.612Z,1015.41
2017-10-01T07:58:41.631Z,1015.4
2017-10-01T07:59:23.958Z,1015.38
2017-10-01T08:00:06.719Z,1015.45
2017-10-01T08:00:51.369Z,1015.4
2017-10-01T08:01:34.732Z,1015.43
2017-10-01T08:02:16.917Z,1015.44
2017-10-01T08:02:59.723Z,1015.47
2017-10-01T08:03:46.731Z,1015.48
2017-10-01T08:04:31.150Z,1015.47
2017-10-01T08:05:11.974Z,1015.46
2017-10-01T08:05:52.965Z,1015.48
2017-10-01T08:06:36.923Z,1015.54
2017-10-01T08:07:24.518Z,1015.49
2017-10-01T08:08:08.661Z,1015.51
2017-10-01T08:08:52.463Z,1015.5
2017-10-01T08:09:36.269Z,1015.52
2017-10-01T08:10:18.816Z,1015.49
2017-10-01T08:11:01.358Z,1015.49
2017-10-01T08:11:41.786Z,1015.5
2017-10-01T08:12:22.382Z,1015.52
2017-10-01T08:13:02.970Z,1015.51
2017-10-01T08:13:43.556Z,1015.51
2017-10-01T08:14:24.144Z,1015.52
2017-10-01T08:15:04.725Z,1015.55
2017-10-01T08:15:45.313Z,1015.56
2017-10-01T08:16:25.937Z,1015.52
2017-10-01T08:17:06.533Z,1015.56
2017-10-01T08:17:47.124Z,1015.51